sensor_id;sensor_type;location;lat;lon;timestamp;pressure;altitude;pressure_sealevel;temperature;humidity
59588;BME280;45412;54.472;18.464;2023-05-25T00:02:06;100211.84;;;12.92;82.10
59588;BME280;45412;54.472;18.464;2023-05-25T00:04:54;100210.39;;;12.90;82.56
59588;BME280;45412;54.472;18.464;2023-05-25T00:07:46;100208.00;;;12.89;83.07
59588;BME280;45412;54.472;18.464;2023-05-25T00:10:34;100210.64;;;12.87;83.43
59588;BME280;45412;54.472;18.464;2023-05-25T00:13:23;100211.72;;;12.85;84.15
59588;BME280;45412;54.472;18.464;2023-05-25T00:16:12;100213.32;;;12.85;84.88
59588;BME280;45412;54.472;18.464;2023-05-25T00:19:00;100216.73;;;12.85;84.93
59588;BME280;45412;54.472;18.464;2023-05-25T00:21:51;100214.67;;;12.84;85.42
59588;BME280;45412;54.472;18.464;2023-05-25T00:24:39;100219.64;;;12.84;86.12
59588;BME280;45412;54.472;18.464;2023-05-25T00:27:29;100219.00;;;12.85;86.69
59588;BME280;45412;54.472;18.464;2023-05-25T00:30:18;100221.49;;;12.85;86.89
59588;BME280;45412;54.472;18.464;2023-05-25T00:33:06;100220.44;;;12.85;87.27
59588;BME280;45412;54.472;18.464;2023-05-25T00:35:57;100219.53;;;12.85;87.70
59588;BME280;45412;54.472;18.464;2023-05-25T00:38:49;100216.84;;;12.85;87.63
59588;BME280;45412;54.472;18.464;2023-05-25T00:41:38;100220.86;;;12.86;87.66
59588;BME280;45412;54.472;18.464;2023-05-25T00:44:28;100224.14;;;12.88;87.64
59588;BME280;45412;54.472;18.464;2023-05-25T00:47:20;100225.52;;;12.88;87.85
59588;BME280;45412;54.472;18.464;2023-05-25T00:50:13;100230.77;;;12.87;87.86
59588;BME280;45412;54.472;18.464;2023-05-25T00:53:02;100236.00;;;12.86;87.98
59588;BME280;45412;54.472;18.464;2023-05-25T00:56:20;100235.79;;;12.85;88.01
59588;BME280;45412;54.472;18.464;2023-05-25T00:59:15;100235.32;;;12.82;88.17
59588;BME280;45412;54.472;18.464;2023-05-25T01:02:09;100236.45;;;12.79;88.28
59588;BME280;45412;54.472;18.464;2023-05-25T01:05:01;100234.61;;;12.75;88.97
59588;BME280;45412;54.472;18.464;2023-05-25T01:07:58;100237.29;;;12.71;89.50
59588;BME280;45412;54.472;18.464;2023-05-25T01:10:50;100238.20;;;12.67;89.66
59588;BME280;45412;54.472;18.464;2023-05-25T01:13:39;100231.44;;;12.60;90.12
59588;BME280;45412;54.472;18.464;2023-05-25T01:16:29;100230.73;;;12.55;90.77
59588;BME280;45412;54.472;18.464;2023-05-25T01:19:17;100230.25;;;12.53;90.60
59588;BME280;45412;54.472;18.464;2023-05-25T01:22:12;100230.95;;;12.51;90.89
59588;BME280;45412;54.472;18.464;2023-05-25T01:25:21;100229.91;;;12.48;91.08
59588;BME280;45412;54.472;18.464;2023-05-25T01:28:24;100223.91;;;12.41;91.19
59588;BME280;45412;54.472;18.464;2023-05-25T01:31:18;100229.92;;;12.40;91.47
59588;BME280;45412;54.472;18.464;2023-05-25T01:34:09;100231.70;;;12.35;91.90
59588;BME280;45412;54.472;18.464;2023-05-25T01:36:59;100232.42;;;12.33;92.09
59588;BME280;45412;54.472;18.464;2023-05-25T01:39:48;100231.05;;;12.30;92.06
59588;BME280;45412;54.472;18.464;2023-05-25T01:42:38;100236.56;;;12.28;92.09
59588;BME280;45412;54.472;18.464;2023-05-25T01:45:27;100240.08;;;12.26;92.33
59588;BME280;45412;54.472;18.464;2023-05-25T01:48:30;100239.27;;;12.23;92.31
59588;BME280;45412;54.472;18.464;2023-05-25T01:51:59;100243.49;;;12.21;92.39
59588;BME280;45412;54.472;18.464;2023-05-25T01:54:54;100247.27;;;12.17;93.25
59588;BME280;45412;54.472;18.464;2023-05-25T01:57:49;100250.11;;;12.12;93.15
59588;BME280;45412;54.472;18.464;2023-05-25T02:00:39;100253.33;;;12.10;93.11
59588;BME280;45412;54.472;18.464;2023-05-25T02:03:28;100256.89;;;12.07;93.00
59588;BME280;45412;54.472;18.464;2023-05-25T02:06:16;100256.15;;;12.04;93.36
59588;BME280;45412;54.472;18.464;2023-05-25T02:09:05;100253.67;;;12.01;93.29
59588;BME280;45412;54.472;18.464;2023-05-25T02:11:53;100250.52;;;11.98;93.49
59588;BME280;45412;54.472;18.464;2023-05-25T02:14:41;100249.13;;;11.96;93.51
59588;BME280;45412;54.472;18.464;2023-05-25T02:17:30;100240.46;;;11.92;93.69
59588;BME280;45412;54.472;18.464;2023-05-25T02:20:19;100243.60;;;11.91;93.11
59588;BME280;45412;54.472;18.464;2023-05-25T02:23:08;100242.56;;;11.88;93.32
59588;BME280;45412;54.472;18.464;2023-05-25T02:25:58;100242.56;;;11.86;93.71
59588;BME280;45412;54.472;18.464;2023-05-25T02:28:46;100246.08;;;11.82;93.90
59588;BME280;45412;54.472;18.464;2023-05-25T02:31:35;100247.14;;;11.78;93.98
59588;BME280;45412;54.472;18.464;2023-05-25T02:34:24;100248.68;;;11.74;94.28
59588;BME280;45412;54.472;18.464;2023-05-25T02:37:12;100245.05;;;11.71;94.72
59588;BME280;45412;54.472;18.464;2023-05-25T02:40:01;100245.50;;;11.67;95.21
59588;BME280;45412;54.472;18.464;2023-05-25T02:42:51;100247.42;;;11.63;95.73
59588;BME280;45412;54.472;18.464;2023-05-25T02:45:39;100246.75;;;11.60;95.46
59588;BME280;45412;54.472;18.464;2023-05-25T02:48:27;100243.96;;;11.57;95.63
59588;BME280;45412;54.472;18.464;2023-05-25T02:51:15;100246.42;;;11.55;95.92
59588;BME280;45412;54.472;18.464;2023-05-25T02:54:04;100245.40;;;11.52;96.01
59588;BME280;45412;54.472;18.464;2023-05-25T02:56:53;100245.80;;;11.52;96.04
59588;BME280;45412;54.472;18.464;2023-05-25T02:59:42;100243.05;;;11.51;96.15
59588;BME280;45412;54.472;18.464;2023-05-25T03:02:31;100241.96;;;11.49;95.91
59588;BME280;45412;54.472;18.464;2023-05-25T03:05:20;100242.97;;;11.50;96.23
59588;BME280;45412;54.472;18.464;2023-05-25T03:08:08;100243.09;;;11.50;96.10
59588;BME280;45412;54.472;18.464;2023-05-25T03:10:58;100241.83;;;11.53;95.85
59588;BME280;45412;54.472;18.464;2023-05-25T03:13:46;100244.33;;;11.55;95.77
59588;BME280;45412;54.472;18.464;2023-05-25T03:16:35;100239.83;;;11.55;95.92
59588;BME280;45412;54.472;18.464;2023-05-25T03:19:25;100244.02;;;11.56;95.60
59588;BME280;45412;54.472;18.464;2023-05-25T03:22:14;100245.77;;;11.57;95.72
59588;BME280;45412;54.472;18.464;2023-05-25T03:25:02;100255.42;;;11.56;95.69
59588;BME280;45412;54.472;18.464;2023-05-25T03:27:52;100253.23;;;11.54;95.42
59588;BME280;45412;54.472;18.464;2023-05-25T03:30:41;100249.00;;;11.54;95.19
59588;BME280;45412;54.472;18.464;2023-05-25T03:33:30;100244.59;;;11.54;95.53
59588;BME280;45412;54.472;18.464;2023-05-25T03:36:18;100244.57;;;11.54;95.82
59588;BME280;45412;54.472;18.464;2023-05-25T03:39:07;100249.92;;;11.56;95.78
59588;BME280;45412;54.472;18.464;2023-05-25T03:41:57;100249.33;;;11.59;95.49
59588;BME280;45412;54.472;18.464;2023-05-25T03:44:46;100246.38;;;11.65;95.35
59588;BME280;45412;54.472;18.464;2023-05-25T03:47:35;100250.67;;;11.69;95.12
59588;BME280;45412;54.472;18.464;2023-05-25T03:50:24;100251.14;;;11.72;94.86
59588;BME280;45412;54.472;18.464;2023-05-25T03:53:12;100249.27;;;11.76;94.91
59588;BME280;45412;54.472;18.464;2023-05-25T03:56:01;100244.41;;;11.81;94.71
59588;BME280;45412;54.472;18.464;2023-05-25T03:58:50;100242.61;;;11.88;94.15
59588;BME280;45412;54.472;18.464;2023-05-25T04:01:39;100237.80;;;11.92;93.91
59588;BME280;45412;54.472;18.464;2023-05-25T04:04:28;100235.24;;;12.00;93.84
59588;BME280;45412;54.472;18.464;2023-05-25T04:07:18;100235.02;;;12.09;93.10
59588;BME280;45412;54.472;18.464;2023-05-25T04:10:07;100239.48;;;12.18;92.92
59588;BME280;45412;54.472;18.464;2023-05-25T04:12:56;100250.05;;;12.28;92.60
59588;BME280;45412;54.472;18.464;2023-05-25T04:15:44;100250.52;;;12.36;91.85
59588;BME280;45412;54.472;18.464;2023-05-25T04:18:37;100252.84;;;12.40;91.67
59588;BME280;45412;54.472;18.464;2023-05-25T04:21:28;100246.70;;;12.46;91.58
59588;BME280;45412;54.472;18.464;2023-05-25T04:24:18;100244.92;;;12.54;91.26
59588;BME280;45412;54.472;18.464;2023-05-25T04:27:07;100243.69;;;12.62;90.73
59588;BME280;45412;54.472;18.464;2023-05-25T04:29:57;100247.91;;;12.72;90.52
59588;BME280;45412;54.472;18.464;2023-05-25T04:33:06;100258.41;;;12.84;90.08
59588;BME280;45412;54.472;18.464;2023-05-25T04:36:08;100260.52;;;12.95;89.56
59588;BME280;45412;54.472;18.464;2023-05-25T04:38:57;100260.27;;;13.11;88.83
59588;BME280;45412;54.472;18.464;2023-05-25T04:41:50;100255.86;;;13.32;87.67
59588;BME280;45412;54.472;18.464;2023-05-25T04:44:39;100253.68;;;13.61;86.45
59588;BME280;45412;54.472;18.464;2023-05-25T04:47:29;100250.02;;;14.11;84.82
59588;BME280;45412;54.472;18.464;2023-05-25T04:50:17;100251.81;;;14.62;81.45
59588;BME280;45412;54.472;18.464;2023-05-25T04:53:10;100249.04;;;15.06;78.93
59588;BME280;45412;54.472;18.464;2023-05-25T04:56:00;100249.27;;;15.61;76.77
59588;BME280;45412;54.472;18.464;2023-05-25T04:58:48;100249.23;;;16.13;74.45
59588;BME280;45412;54.472;18.464;2023-05-25T05:01:37;100252.85;;;16.44;71.86
59588;BME280;45412;54.472;18.464;2023-05-25T05:04:32;100249.14;;;16.70;71.05
59588;BME280;45412;54.472;18.464;2023-05-25T05:07:22;100248.86;;;17.12;69.34
59588;BME280;45412;54.472;18.464;2023-05-25T05:10:10;100246.48;;;17.60;67.06
59588;BME280;45412;54.472;18.464;2023-05-25T05:13:01;100251.65;;;18.02;65.88
59588;BME280;45412;54.472;18.464;2023-05-25T05:15:50;100248.70;;;18.48;64.32
59588;BME280;45412;54.472;18.464;2023-05-25T05:18:38;100249.04;;;19.10;61.63
59588;BME280;45412;54.472;18.464;2023-05-25T05:21:28;100246.34;;;19.68;59.35
59588;BME280;45412;54.472;18.464;2023-05-25T05:24:17;100244.92;;;20.17;56.98
59588;BME280;45412;54.472;18.464;2023-05-25T05:27:06;100238.26;;;20.79;55.54
59588;BME280;45412;54.472;18.464;2023-05-25T05:30:02;100238.82;;;21.38;52.81
59588;BME280;45412;54.472;18.464;2023-05-25T05:32:50;100241.70;;;21.83;51.05
59588;BME280;45412;54.472;18.464;2023-05-25T05:35:41;100240.77;;;22.40;49.53
59588;BME280;45412;54.472;18.464;2023-05-25T05:38:33;100240.73;;;22.84;48.28
59588;BME280;45412;54.472;18.464;2023-05-25T05:41:21;100242.55;;;23.35;47.04
59588;BME280;45412;54.472;18.464;2023-05-25T05:44:10;100248.58;;;23.72;45.47
59588;BME280;45412;54.472;18.464;2023-05-25T05:46:59;100247.96;;;24.23;44.60
59588;BME280;45412;54.472;18.464;2023-05-25T05:49:49;100250.54;;;24.63;43.31
59588;BME280;45412;54.472;18.464;2023-05-25T05:52:37;100249.55;;;25.05;41.91
59588;BME280;45412;54.472;18.464;2023-05-25T05:55:25;100251.71;;;25.47;41.04
59588;BME280;45412;54.472;18.464;2023-05-25T05:58:13;100260.45;;;25.97;40.03
59588;BME280;45412;54.472;18.464;2023-05-25T06:01:02;100263.44;;;26.48;39.46
59588;BME280;45412;54.472;18.464;2023-05-25T06:03:51;100257.71;;;26.85;38.25
59588;BME280;45412;54.472;18.464;2023-05-25T06:06:41;100258.02;;;27.23;37.21
59588;BME280;45412;54.472;18.464;2023-05-25T06:09:33;100259.09;;;27.59;36.54
59588;BME280;45412;54.472;18.464;2023-05-25T06:12:21;100259.42;;;27.93;35.99
59588;BME280;45412;54.472;18.464;2023-05-25T06:15:10;100254.33;;;28.28;35.12
59588;BME280;45412;54.472;18.464;2023-05-25T06:17:59;100264.08;;;28.70;34.67
59588;BME280;45412;54.472;18.464;2023-05-25T06:20:51;100269.34;;;28.95;33.78
59588;BME280;45412;54.472;18.464;2023-05-25T06:23:39;100271.55;;;29.15;33.40
59588;BME280;45412;54.472;18.464;2023-05-25T06:26:28;100274.48;;;29.39;32.76
59588;BME280;45412;54.472;18.464;2023-05-25T06:29:17;100280.81;;;29.29;32.10
59588;BME280;45412;54.472;18.464;2023-05-25T06:32:05;100283.10;;;29.30;32.47
59588;BME280;45412;54.472;18.464;2023-05-25T06:34:58;100281.77;;;29.49;32.15
59588;BME280;45412;54.472;18.464;2023-05-25T06:37:48;100276.91;;;29.65;31.75
59588;BME280;45412;54.472;18.464;2023-05-25T06:40:38;100279.78;;;29.81;31.30
59588;BME280;45412;54.472;18.464;2023-05-25T06:43:28;100284.59;;;30.03;30.90
59588;BME280;45412;54.472;18.464;2023-05-25T06:46:32;100288.84;;;30.26;30.68
59588;BME280;45412;54.472;18.464;2023-05-25T06:49:21;100291.48;;;30.38;30.27
59588;BME280;45412;54.472;18.464;2023-05-25T06:52:10;100299.53;;;30.47;29.89
59588;BME280;45412;54.472;18.464;2023-05-25T06:55:00;100301.29;;;30.47;29.63
59588;BME280;45412;54.472;18.464;2023-05-25T06:57:50;100310.75;;;30.38;29.44
59588;BME280;45412;54.472;18.464;2023-05-25T07:00:39;100311.34;;;30.32;29.56
59588;BME280;45412;54.472;18.464;2023-05-25T07:03:28;100305.27;;;30.58;29.58
59588;BME280;45412;54.472;18.464;2023-05-25T07:06:17;100306.98;;;30.96;29.44
59588;BME280;45412;54.472;18.464;2023-05-25T07:09:05;100300.73;;;31.44;28.60
59588;BME280;45412;54.472;18.464;2023-05-25T07:11:54;100306.30;;;31.62;28.55
59588;BME280;45412;54.472;18.464;2023-05-25T07:14:42;100308.56;;;31.92;28.13
59588;BME280;45412;54.472;18.464;2023-05-25T07:17:35;100303.78;;;32.22;27.95
59588;BME280;45412;54.472;18.464;2023-05-25T07:20:23;100308.09;;;32.54;27.39
59588;BME280;45412;54.472;18.464;2023-05-25T07:23:12;100311.27;;;32.47;26.83
59588;BME280;45412;54.472;18.464;2023-05-25T07:26:01;100302.30;;;31.77;27.37
59588;BME280;45412;54.472;18.464;2023-05-25T07:28:54;100309.48;;;31.12;28.48
59588;BME280;45412;54.472;18.464;2023-05-25T07:31:46;100315.24;;;31.10;28.88
59588;BME280;45412;54.472;18.464;2023-05-25T07:34:35;100315.71;;;31.01;28.90
59588;BME280;45412;54.472;18.464;2023-05-25T07:37:23;100314.64;;;30.90;28.70
59588;BME280;45412;54.472;18.464;2023-05-25T07:40:12;100316.12;;;30.69;28.67
59588;BME280;45412;54.472;18.464;2023-05-25T07:43:00;100318.39;;;31.14;28.75
59588;BME280;45412;54.472;18.464;2023-05-25T07:45:51;100321.33;;;31.68;27.86
59588;BME280;45412;54.472;18.464;2023-05-25T07:48:39;100319.58;;;32.23;27.04
59588;BME280;45412;54.472;18.464;2023-05-25T07:51:28;100327.80;;;32.69;26.66
59588;BME280;45412;54.472;18.464;2023-05-25T07:54:19;100325.14;;;33.00;26.18
59588;BME280;45412;54.472;18.464;2023-05-25T07:57:08;100331.62;;;33.13;25.48
59588;BME280;45412;54.472;18.464;2023-05-25T07:59:57;100336.42;;;33.01;25.21
59588;BME280;45412;54.472;18.464;2023-05-25T08:02:46;100332.84;;;32.93;25.44
59588;BME280;45412;54.472;18.464;2023-05-25T08:05:38;100336.15;;;32.77;25.28
59588;BME280;45412;54.472;18.464;2023-05-25T08:08:27;100331.58;;;32.14;26.11
59588;BME280;45412;54.472;18.464;2023-05-25T08:11:16;100336.23;;;31.10;27.12
59588;BME280;45412;54.472;18.464;2023-05-25T08:14:04;100335.13;;;29.94;28.65
59588;BME280;45412;54.472;18.464;2023-05-25T08:16:53;100340.39;;;29.10;30.24
59588;BME280;45412;54.472;18.464;2023-05-25T08:19:41;100339.94;;;28.86;31.11
59588;BME280;45412;54.472;18.464;2023-05-25T08:22:29;100344.67;;;28.89;30.83
59588;BME280;45412;54.472;18.464;2023-05-25T08:25:18;100350.30;;;28.56;31.26
59588;BME280;45412;54.472;18.464;2023-05-25T08:28:07;100350.99;;;28.69;31.40
59588;BME280;45412;54.472;18.464;2023-05-25T08:30:56;100356.02;;;29.04;30.82
59588;BME280;45412;54.472;18.464;2023-05-25T08:33:45;100355.27;;;29.60;30.32
59588;BME280;45412;54.472;18.464;2023-05-25T08:36:34;100359.51;;;30.22;29.36
59588;BME280;45412;54.472;18.464;2023-05-25T08:39:24;100356.25;;;31.10;28.60
59588;BME280;45412;54.472;18.464;2023-05-25T08:42:12;100356.28;;;31.85;27.53
59588;BME280;45412;54.472;18.464;2023-05-25T08:45:03;100354.61;;;32.37;26.76
59588;BME280;45412;54.472;18.464;2023-05-25T08:47:57;100346.20;;;32.48;26.83
59588;BME280;45412;54.472;18.464;2023-05-25T08:50:48;100358.91;;;32.12;26.67
59588;BME280;45412;54.472;18.464;2023-05-25T08:53:39;100359.28;;;31.78;27.22
59588;BME280;45412;54.472;18.464;2023-05-25T08:56:29;100367.30;;;31.40;27.33
59588;BME280;45412;54.472;18.464;2023-05-25T09:03:29;100368.17;;;30.89;28.52
59588;BME280;45412;54.472;18.464;2023-05-25T09:06:19;100370.32;;;30.89;28.74
59588;BME280;45412;54.472;18.464;2023-05-25T09:09:08;100370.05;;;31.47;28.27
59588;BME280;45412;54.472;18.464;2023-05-25T09:11:56;100367.91;;;32.10;27.34
59588;BME280;45412;54.472;18.464;2023-05-25T09:14:45;100367.95;;;32.42;26.72
59588;BME280;45412;54.472;18.464;2023-05-25T09:17:35;100373.59;;;32.74;26.35
59588;BME280;45412;54.472;18.464;2023-05-25T09:20:25;100371.48;;;32.26;26.99
59588;BME280;45412;54.472;18.464;2023-05-25T09:23:18;100380.24;;;31.25;27.92
59588;BME280;45412;54.472;18.464;2023-05-25T09:26:07;100374.31;;;30.53;28.77
59588;BME280;45412;54.472;18.464;2023-05-25T09:28:57;100370.05;;;30.43;29.23
59588;BME280;45412;54.472;18.464;2023-05-25T09:31:46;100368.94;;;30.74;28.73
59588;BME280;45412;54.472;18.464;2023-05-25T09:34:34;100373.70;;;31.23;28.13
59588;BME280;45412;54.472;18.464;2023-05-25T09:37:22;100369.85;;;31.58;27.32
59588;BME280;45412;54.472;18.464;2023-05-25T09:40:11;100368.11;;;31.93;27.19
59588;BME280;45412;54.472;18.464;2023-05-25T09:43:03;100365.80;;;32.01;26.77
59588;BME280;45412;54.472;18.464;2023-05-25T09:45:52;100361.56;;;31.84;27.03
59588;BME280;45412;54.472;18.464;2023-05-25T09:48:41;100366.31;;;31.82;26.89
59588;BME280;45412;54.472;18.464;2023-05-25T09:51:30;100368.86;;;31.18;27.70
59588;BME280;45412;54.472;18.464;2023-05-25T09:54:21;100365.19;;;30.52;28.58
59588;BME280;45412;54.472;18.464;2023-05-25T09:57:13;100369.37;;;30.81;28.58
59588;BME280;45412;54.472;18.464;2023-05-25T10:00:04;100363.08;;;31.27;27.63
59588;BME280;45412;54.472;18.464;2023-05-25T10:02:59;100356.11;;;31.84;27.14
59588;BME280;45412;54.472;18.464;2023-05-25T10:05:48;100359.92;;;32.40;26.78
59588;BME280;45412;54.472;18.464;2023-05-25T10:08:37;100355.89;;;32.72;26.20
59588;BME280;45412;54.472;18.464;2023-05-25T10:11:27;100362.23;;;32.68;26.24
59588;BME280;45412;54.472;18.464;2023-05-25T10:14:22;100359.44;;;32.51;26.79
59588;BME280;45412;54.472;18.464;2023-05-25T10:17:22;100360.67;;;32.76;26.73
59588;BME280;45412;54.472;18.464;2023-05-25T10:20:13;100364.02;;;33.10;25.58
59588;BME280;45412;54.472;18.464;2023-05-25T10:23:12;100366.99;;;33.21;25.17
59588;BME280;45412;54.472;18.464;2023-05-25T10:26:02;100363.94;;;33.45;25.10
59588;BME280;45412;54.472;18.464;2023-05-25T10:28:59;100367.09;;;33.55;24.85
59588;BME280;45412;54.472;18.464;2023-05-25T10:31:52;100365.92;;;33.75;24.70
59588;BME280;45412;54.472;18.464;2023-05-25T10:34:41;100372.61;;;33.86;24.65
59588;BME280;45412;54.472;18.464;2023-05-25T10:37:29;100366.29;;;33.89;24.84
59588;BME280;45412;54.472;18.464;2023-05-25T10:40:22;100371.05;;;34.04;24.52
59588;BME280;45412;54.472;18.464;2023-05-25T10:43:11;100373.66;;;34.08;24.08
59588;BME280;45412;54.472;18.464;2023-05-25T10:46:00;100375.29;;;33.57;24.28
59588;BME280;45412;54.472;18.464;2023-05-25T10:48:50;100371.48;;;34.02;24.14
59588;BME280;45412;54.472;18.464;2023-05-25T10:51:40;100377.79;;;33.89;24.20
59588;BME280;45412;54.472;18.464;2023-05-25T10:54:30;100377.36;;;33.48;24.76
59588;BME280;45412;54.472;18.464;2023-05-25T10:57:27;100373.90;;;33.34;24.35
59588;BME280;45412;54.472;18.464;2023-05-25T11:00:16;100375.34;;;33.43;24.65
59588;BME280;45412;54.472;18.464;2023-05-25T11:03:06;100364.34;;;33.20;24.79
59588;BME280;45412;54.472;18.464;2023-05-25T11:05:55;100363.63;;;33.26;24.59
59588;BME280;45412;54.472;18.464;2023-05-25T11:08:57;100365.68;;;33.23;24.61
59588;BME280;45412;54.472;18.464;2023-05-25T11:14:43;100368.33;;;32.17;25.90
59588;BME280;45412;54.472;18.464;2023-05-25T11:17:31;100368.77;;;31.70;26.59
59588;BME280;45412;54.472;18.464;2023-05-25T11:20:27;100365.02;;;30.69;27.64
59588;BME280;45412;54.472;18.464;2023-05-25T11:23:23;100368.02;;;30.04;28.71
59588;BME280;45412;54.472;18.464;2023-05-25T11:26:19;100369.16;;;29.41;29.67
59588;BME280;45412;54.472;18.464;2023-05-25T11:29:14;100373.67;;;28.51;30.90
59588;BME280;45412;54.472;18.464;2023-05-25T11:32:03;100371.46;;;27.80;32.32
59588;BME280;45412;54.472;18.464;2023-05-25T11:34:53;100373.85;;;27.20;33.23
59588;BME280;45412;54.472;18.464;2023-05-25T11:37:41;100373.90;;;26.79;33.70
59588;BME280;45412;54.472;18.464;2023-05-25T11:40:36;100376.11;;;26.35;34.48
59588;BME280;45412;54.472;18.464;2023-05-25T11:43:28;100371.69;;;25.96;35.17
59588;BME280;45412;54.472;18.464;2023-05-25T11:46:17;100380.83;;;25.55;35.95
59588;BME280;45412;54.472;18.464;2023-05-25T11:49:06;100382.18;;;25.21;36.53
59588;BME280;45412;54.472;18.464;2023-05-25T11:51:57;100385.73;;;24.77;37.26
59588;BME280;45412;54.472;18.464;2023-05-25T11:54:45;100385.20;;;24.30;37.95
59588;BME280;45412;54.472;18.464;2023-05-25T11:57:34;100388.53;;;23.93;38.90
59588;BME280;45412;54.472;18.464;2023-05-25T12:00:25;100389.39;;;23.67;39.39
59588;BME280;45412;54.472;18.464;2023-05-25T12:03:49;100391.52;;;23.44;39.79
59588;BME280;45412;54.472;18.464;2023-05-25T12:06:39;100395.46;;;23.12;40.50
59588;BME280;45412;54.472;18.464;2023-05-25T12:09:28;100395.70;;;22.88;40.81
59588;BME280;45412;54.472;18.464;2023-05-25T12:12:18;100396.77;;;22.76;41.58
59588;BME280;45412;54.472;18.464;2023-05-25T12:15:12;100397.51;;;22.46;42.55
59588;BME280;45412;54.472;18.464;2023-05-25T12:18:03;100400.62;;;22.22;43.49
59588;BME280;45412;54.472;18.464;2023-05-25T12:20:51;100399.40;;;21.97;44.08
59588;BME280;45412;54.472;18.464;2023-05-25T12:23:40;100403.50;;;21.65;44.81
59588;BME280;45412;54.472;18.464;2023-05-25T12:26:28;100404.08;;;21.41;45.71
59588;BME280;45412;54.472;18.464;2023-05-25T12:29:16;100403.30;;;21.23;46.29
59588;BME280;45412;54.472;18.464;2023-05-25T12:32:05;100407.73;;;21.06;46.87
59588;BME280;45412;54.472;18.464;2023-05-25T12:35:06;100406.71;;;20.80;47.26
59588;BME280;45412;54.472;18.464;2023-05-25T12:38:11;100405.92;;;20.81;47.44
59588;BME280;45412;54.472;18.464;2023-05-25T12:41:05;100406.62;;;20.99;47.41
59588;BME280;45412;54.472;18.464;2023-05-25T12:43:57;100405.99;;;21.08;46.90
59588;BME280;45412;54.472;18.464;2023-05-25T12:46:50;100402.63;;;21.18;46.70
59588;BME280;45412;54.472;18.464;2023-05-25T12:49:42;100396.93;;;21.28;46.63
59588;BME280;45412;54.472;18.464;2023-05-25T12:52:42;100394.18;;;21.30;46.47
59588;BME280;45412;54.472;18.464;2023-05-25T12:55:32;100391.67;;;21.36;46.32
59588;BME280;45412;54.472;18.464;2023-05-25T12:58:27;100386.74;;;21.52;46.17
59588;BME280;45412;54.472;18.464;2023-05-25T13:01:15;100386.78;;;21.75;45.99
59588;BME280;45412;54.472;18.464;2023-05-25T13:04:03;100391.10;;;21.91;45.22
59588;BME280;45412;54.472;18.464;2023-05-25T13:06:53;100390.21;;;21.96;44.95
59588;BME280;45412;54.472;18.464;2023-05-25T13:09:42;100390.38;;;22.05;45.28
59588;BME280;45412;54.472;18.464;2023-05-25T13:12:31;100391.65;;;22.03;44.96
59588;BME280;45412;54.472;18.464;2023-05-25T13:15:20;100389.23;;;22.16;44.76
59588;BME280;45412;54.472;18.464;2023-05-25T13:18:09;100378.13;;;22.40;44.36
59588;BME280;45412;54.472;18.464;2023-05-25T13:20:58;100380.22;;;22.62;44.05
59588;BME280;45412;54.472;18.464;2023-05-25T13:23:47;100381.89;;;22.70;43.68
59588;BME280;45412;54.472;18.464;2023-05-25T13:26:35;100376.31;;;22.78;42.80
59588;BME280;45412;54.472;18.464;2023-05-25T13:29:24;100374.80;;;22.81;42.64
59588;BME280;45412;54.472;18.464;2023-05-25T13:32:15;100377.14;;;22.77;42.72
59588;BME280;45412;54.472;18.464;2023-05-25T13:35:02;100379.73;;;22.67;43.53
59588;BME280;45412;54.472;18.464;2023-05-25T13:37:54;100384.59;;;22.47;43.65
59588;BME280;45412;54.472;18.464;2023-05-25T13:40:42;100380.59;;;22.41;43.81
59588;BME280;45412;54.472;18.464;2023-05-25T13:43:32;100384.02;;;22.45;44.22
59588;BME280;45412;54.472;18.464;2023-05-25T13:46:20;100386.46;;;22.40;43.82
59588;BME280;45412;54.472;18.464;2023-05-25T13:49:22;100380.12;;;22.10;44.00
59588;BME280;45412;54.472;18.464;2023-05-25T13:52:13;100375.73;;;21.91;44.49
59588;BME280;45412;54.472;18.464;2023-05-25T13:55:01;100375.83;;;21.85;45.26
59588;BME280;45412;54.472;18.464;2023-05-25T13:57:49;100372.48;;;21.83;45.13
59588;BME280;45412;54.472;18.464;2023-05-25T14:00:38;100374.16;;;21.82;45.12
59588;BME280;45412;54.472;18.464;2023-05-25T14:03:27;100369.33;;;21.76;45.39
59588;BME280;45412;54.472;18.464;2023-05-25T14:06:16;100367.48;;;21.71;45.50
59588;BME280;45412;54.472;18.464;2023-05-25T14:09:04;100362.58;;;21.70;45.49
59588;BME280;45412;54.472;18.464;2023-05-25T14:11:54;100355.16;;;21.64;45.46
59588;BME280;45412;54.472;18.464;2023-05-25T14:14:43;100358.26;;;21.63;45.49
59588;BME280;45412;54.472;18.464;2023-05-25T14:17:32;100355.20;;;21.64;45.37
59588;BME280;45412;54.472;18.464;2023-05-25T14:20:21;100357.07;;;21.65;45.69
59588;BME280;45412;54.472;18.464;2023-05-25T14:23:13;100358.91;;;21.61;46.06
59588;BME280;45412;54.472;18.464;2023-05-25T14:26:04;100356.23;;;21.60;45.84
59588;BME280;45412;54.472;18.464;2023-05-25T14:28:54;100353.81;;;21.53;45.61
59588;BME280;45412;54.472;18.464;2023-05-25T14:31:42;100355.04;;;21.59;45.46
59588;BME280;45412;54.472;18.464;2023-05-25T14:34:31;100355.48;;;21.65;45.31
59588;BME280;45412;54.472;18.464;2023-05-25T14:37:20;100355.43;;;21.60;44.84
59588;BME280;45412;54.472;18.464;2023-05-25T14:40:09;100355.91;;;21.47;45.46
59588;BME280;45412;54.472;18.464;2023-05-25T14:42:57;100359.91;;;21.35;45.98
59588;BME280;45412;54.472;18.464;2023-05-25T14:45:46;100364.27;;;21.27;46.12
59588;BME280;45412;54.472;18.464;2023-05-25T14:48:35;100357.92;;;21.13;46.54